Time;durP1;ratioP1;P1;durP2;ratioP2;P2;SDS_P1;SDS_P2;PMS_P1;PMS_P2;Temp;Humidity;BMP_temperature;BMP_pressure;BME280_temperature;BME280_humidity;BME280_pressure;Samples;Min_cycle;Max_cycle;Signal;HPM_P1;HPM_P2
2022/04/17 00:00:41;;;;;;;19.63;14.48;;;;;;;6.76;51.74;102939.25;5040973;28;20403;-65
2022/04/17 00:03:06;;;;;;;17.67;12.85;;;;;;;6.74;51.52;102937.69;5039954;28;20602;-65
2022/04/17 00:05:32;;;;;;;18.92;13.35;;;;;;;6.74;51.47;102926.75;5040191;28;20044;-65
2022/04/17 00:07:57;;;;;;;21.95;14.75;;;;;;;6.75;51.10;102926.63;5040800;28;20470;-66
2022/04/17 00:10:23;;;;;;;20.52;13.95;;;;;;;6.72;52.89;102931.53;5040403;28;20037;-66
2022/04/17 00:12:48;;;;;;;19.25;14.73;;;;;;;6.69;53.58;102935.44;5040286;28;20511;-65
2022/04/17 00:15:13;;;;;;;22.08;14.43;;;;;;;6.68;53.08;102936.41;5039620;28;20106;-65
2022/04/17 00:17:42;;;;;;;19.80;14.57;;;;;;;6.67;51.57;102929.25;5039780;28;20068;-65
2022/04/17 00:20:11;;;;;;;;;;;;;;;6.74;51.37;102940.41;5042041;28;20017;-66
2022/04/17 00:22:36;;;;;;;20.10;15.10;;;;;;;6.63;51.77;102935.16;5041154;28;20003;-66
2022/04/17 00:25:02;;;;;;;20.70;15.13;;;;;;;6.59;52.18;102929.19;5040742;28;20099;-65
2022/04/17 00:27:27;;;;;;;22.98;15.35;;;;;;;6.55;53.67;102933.22;5040114;28;20021;-66
2022/04/17 00:29:53;;;;;;;23.95;17.27;;;;;;;6.37;56.64;102932.31;5042009;28;20021;-65
2022/04/17 00:32:18;;;;;;;21.77;15.68;;;;;;;6.28;56.19;102935.94;5043473;28;20053;-65
2022/04/17 00:34:44;;;;;;;21.42;15.88;;;;;;;6.17;56.98;102937.00;5044485;28;20033;-65
2022/04/17 00:37:10;;;;;;;22.20;15.90;;;;;;;6.13;55.58;102933.75;5043997;28;20025;-65
2022/04/17 00:39:35;;;;;;;25.92;16.70;;;;;;;5.92;58.35;102933.09;5044908;28;20491;-66
2022/04/17 00:42:04;;;;;;;20.92;16.20;;;;;;;5.83;58.64;102936.66;5044443;28;20052;-66
2022/04/17 00:44:30;;;;;;;22.35;15.55;;;;;;;5.79;57.76;102933.41;5044076;28;20107;-66
2022/04/17 00:46:55;;;;;;;23.20;16.98;;;;;;;5.78;61.24;102933.53;5043790;28;20124;-65
2022/04/17 00:49:21;;;;;;;24.23;16.65;;;;;;;5.78;61.40;102934.41;5043879;28;20486;-65
2022/04/17 00:51:47;;;;;;;24.10;17.48;;;;;;;5.76;59.00;102928.22;5043581;28;20021;-65
2022/04/17 00:54:15;;;;;;;23.67;16.38;;;;;;;5.79;58.32;102932.53;5044154;28;20468;-65
2022/04/17 00:56:41;;;;;;;25.48;16.67;;;;;;;5.78;57.99;102933.53;5044410;28;20431;-65
2022/04/17 00:59:09;;;;;;;23.13;16.85;;;;;;;5.73;59.19;102931.25;5043635;28;20100;-65
2022/04/17 01:01:36;;;;;;;23.27;16.60;;;;;;;5.71;60.85;102931.38;5043820;28;20108;-65
2022/04/17 01:04:02;;;;;;;23.67;16.73;;;;;;;5.69;57.46;102933.41;5044289;28;20310;-65
2022/04/17 01:06:27;;;;;;;24.98;16.98;;;;;;;5.70;58.37;102928.81;5043228;28;20025;-65
2022/04/17 01:08:54;;;;;;;24.45;16.92;;;;;;;5.57;59.95;102926.41;5043814;28;20844;-65
2022/04/17 01:11:19;;;;;;;24.70;17.20;;;;;;;5.52;60.70;102936.88;5043143;28;20033;-65
2022/04/17 01:13:45;;;;;;;23.60;16.27;;;;;;;5.55;58.88;102927.56;5043617;28;20037;-65
2022/04/17 01:16:11;;;;;;;26.17;18.27;;;;;;;5.42;60.01;102928.75;5042190;28;20468;-65
2022/04/17 01:18:56;;;;;;;23.75;16.40;;;;;;;5.36;59.11;102933.91;5043658;28;20123;-65
2022/04/17 01:21:25;;;;;;;22.98;16.05;;;;;;;5.29;58.64;102933.63;5042588;28;20021;-66
2022/04/17 01:29:20;;;;;;;24.63;16.88;;;;;;;5.26;58.76;102936.63;5042965;28;20477;-65
2022/04/17 01:31:46;;;;;;;23.27;15.75;;;;;;;5.32;60.80;102940.63;5042462;28;20037;-65
2022/04/17 01:34:14;;;;;;;23.27;15.90;;;;;;;5.36;58.12;102928.44;5042673;28;20099;-65
2022/04/17 01:36:40;;;;;;;;;;;;;;;5.41;57.66;102932.44;5043020;28;20021;-65
2022/04/17 01:39:05;;;;;;;23.70;16.93;;;;;;;5.21;59.85;102931.63;5043797;28;19934;-65
2022/04/17 01:41:30;;;;;;;22.15;16.75;;;;;;;5.16;59.92;102938.50;5041383;28;20036;-65
2022/04/17 01:43:55;;;;;;;25.15;17.05;;;;;;;5.11;59.04;102935.34;5043205;28;20350;-66
2022/04/17 01:46:22;;;;;;;23.05;16.13;;;;;;;5.06;61.70;102935.78;5042019;28;20021;-65
2022/04/17 01:48:47;;;;;;;23.83;17.20;;;;;;;5.04;60.31;102929.63;5043157;28;20033;-65
2022/04/17 01:51:12;;;;;;;25.40;16.98;;;;;;;5.04;61.15;102926.03;5041604;28;20021;-65
2022/04/17 01:53:38;;;;;;;24.08;15.95;;;;;;;5.01;61.99;102929.91;5043574;28;20435;-65
2022/04/17 01:56:03;;;;;;;26.15;16.35;;;;;;;5.00;59.80;102921.88;5042933;28;20029;-65
2022/04/17 01:58:28;;;;;;;23.23;16.17;;;;;;;4.96;61.07;102924.03;5042228;28;20154;-65
2022/04/17 02:00:54;;;;;;;27.75;16.75;;;;;;;4.90;62.70;102921.88;5041510;28;20607;-66
2022/04/17 02:03:19;;;;;;;26.33;17.77;;;;;;;4.78;63.02;102923.88;5042540;28;20078;-65
2022/04/17 02:05:44;;;;;;;25.73;17.55;;;;;;;4.78;63.32;102918.44;5042140;28;20104;-65
2022/04/17 02:08:10;;;;;;;27.40;16.70;;;;;;;4.77;64.86;102914.00;5042025;28;20036;-65
2022/04/17 02:10:35;;;;;;;24.52;15.40;;;;;;;4.78;62.93;102918.44;5042885;28;20024;-65
2022/04/17 02:13:00;;;;;;;25.50;16.45;;;;;;;4.72;64.09;102913.56;5042547;28;20064;-65
2022/04/17 02:15:26;;;;;;;24.13;16.50;;;;;;;4.76;64.24;102911.41;5041970;28;20028;-65
2022/04/17 02:17:51;;;;;;;22.50;15.57;;;;;;;4.76;63.05;102911.41;5041435;28;20029;-65
2022/04/17 02:20:16;;;;;;;20.80;15.63;;;;;;;4.73;64.49;102915.28;5041878;28;20895;-65
2022/04/17 02:22:42;;;;;;;23.45;16.05;;;;;;;4.70;64.86;102912.81;5042447;28;20025;-65
2022/04/17 02:25:07;;;;;;;24.75;15.55;;;;;;;4.71;64.89;102916.41;5042385;28;20026;-65
2022/04/17 02:27:32;;;;;;;23.38;16.38;;;;;;;4.62;64.70;102909.97;5041922;28;20103;-65
2022/04/17 02:29:58;;;;;;;19.67;14.90;;;;;;;4.56;65.37;102911.41;5042206;28;20061;-65
2022/04/17 02:32:23;;;;;;;21.33;15.30;;;;;;;4.52;64.38;102912.69;5040763;28;20032;-65
2022/04/17 02:34:48;;;;;;;22.75;15.63;;;;;;;4.54;65.47;102909.81;5042046;28;20840;-65
2022/04/17 02:37:13;;;;;;;21.67;15.13;;;;;;;4.54;64.08;102907.94;5041304;28;20075;-65
2022/04/17 02:39:39;;;;;;;20.50;14.48;;;;;;;4.52;65.05;102904.50;5042762;28;20029;-66
2022/04/17 02:42:04;;;;;;;21.55;14.57;;;;;;;4.47;65.23;102905.94;5041700;28;20032;-65
2022/04/17 02:44:29;;;;;;;23.35;14.75;;;;;;;4.51;65.43;102910.06;5041742;28;20052;-65
2022/04/17 02:49:39;;;;;;;22.88;14.90;;;;;;;4.43;66.89;102908.94;5042142;28;20083;-65
2022/04/17 02:52:04;;;;;;;23.13;15.65;;;;;;;4.38;66.69;102913.94;5041105;28;20061;-65
2022/04/17 02:54:30;;;;;;;21.75;14.70;;;;;;;4.30;66.06;102904.72;5048348;22;20045;-65
2022/04/17 02:56:55;;;;;;;21.92;15.40;;;;;;;4.25;66.08;102905.13;5041790;28;20076;-65
2022/04/17 02:59:20;;;;;;;21.52;14.82;;;;;;;4.19;66.05;102897.53;5041441;28;20025;-65
2022/04/17 03:07:13;;;;;;;20.13;14.40;;;;;;;4.07;66.93;102895.94;5041668;28;20090;-65
2022/04/17 03:09:39;;;;;;;21.42;15.15;;;;;;;4.00;66.97;102892.03;5042145;28;20498;-66
2022/04/17 03:12:04;;;;;;;19.20;14.60;;;;;;;3.92;67.15;102895.44;5042056;28;20017;-65
2022/04/17 03:14:29;;;;;;;20.33;14.55;;;;;;;3.83;65.29;102891.69;5040033;28;20054;-65
2022/04/17 03:16:56;;;;;;;19.40;13.80;;;;;;;3.78;65.37;102887.66;5040651;28;20039;-65
2022/04/17 03:19:21;;;;;;;26.17;16.25;;;;;;;3.67;66.27;102885.91;5041728;28;20029;-65
2022/04/17 03:21:46;;;;;;;20.35;15.20;;;;;;;3.70;65.29;102882.03;5041187;28;20035;-65
2022/04/17 03:24:12;;;;;;;26.83;15.77;;;;;;;3.72;66.17;102883.63;5041623;28;20021;-65
2022/04/17 03:26:41;;;;;;;21.25;15.85;;;;;;;3.69;68.55;102885.75;5041943;28;20027;-65
2022/04/17 03:29:06;;;;;;;24.23;15.48;;;;;;;3.65;68.85;102885.19;5041727;28;20032;-65
2022/04/17 03:31:31;;;;;;;22.48;15.40;;;;;;;3.67;67.54;102879.59;5040240;28;20021;-65
2022/04/17 03:33:56;;;;;;;22.98;15.38;;;;;;;3.61;69.57;102881.00;5041497;28;20013;-65
2022/04/17 03:36:22;;;;;;;21.45;14.93;;;;;;;3.55;69.68;102881.56;5040596;28;20071;-65
2022/04/17 03:38:47;;;;;;;22.63;15.65;;;;;;;3.53;70.27;102881.66;5041233;28;20029;-65
2022/04/17 03:41:12;;;;;;;22.35;15.32;;;;;;;3.57;69.54;102883.13;5041008;28;20017;-65
2022/04/17 03:43:37;;;;;;;23.00;15.07;;;;;;;3.69;66.32;102872.16;5041578;28;20374;-65
2022/04/17 03:46:03;;;;;;;19.08;13.48;;;;;;;3.79;64.36;102871.22;5040193;28;20029;-65
2022/04/17 03:48:28;;;;;;;22.13;13.40;;;;;;;3.96;62.31;102872.44;5040832;28;20031;-65
2022/04/17 03:50:53;;;;;;;20.08;13.38;;;;;;;4.10;61.93;102868.44;5040553;28;20352;-65
2022/04/17 03:53:18;;;;;;;19.77;13.50;;;;;;;4.07;62.83;102877.75;5041154;28;20037;-65
2022/04/17 03:55:44;;;;;;;23.75;15.32;;;;;;;3.96;67.08;102879.75;5040722;28;20446;-65
2022/04/17 03:58:09;;;;;;;18.20;13.07;;;;;;;3.86;64.64;102875.13;5041480;28;20309;-64
2022/04/17 04:00:34;;;;;;;21.55;13.68;;;;;;;3.76;64.46;102868.78;5040250;28;20021;-64
2022/04/17 04:03:01;;;;;;;20.00;13.68;;;;;;;3.69;64.07;102869.44;5041434;28;20021;-65
2022/04/17 04:05:26;;;;;;;21.35;14.15;;;;;;;3.64;65.72;102870.72;5038245;28;20542;-65
2022/04/17 04:07:51;;;;;;;20.85;14.45;;;;;;;3.54;67.92;102869.81;5041225;28;20021;-64
2022/04/17 04:10:17;;;;;;;22.33;14.50;;;;;;;3.47;69.25;102874.06;5040807;28;20098;-65
2022/04/17 04:12:42;;;;;;;21.20;14.52;;;;;;;3.34;69.28;102868.81;5040850;28;20025;-65
2022/04/17 04:15:08;;;;;;;23.60;14.13;;;;;;;3.24;70.23;102865.19;5041058;28;20021;-65
2022/04/17 04:17:34;;;;;;;24.15;14.75;;;;;;;3.16;69.86;102867.72;5039822;28;20471;-65
2022/04/17 04:20:00;;;;;;;21.52;14.55;;;;;;;3.12;70.00;102856.25;5040892;28;20041;-64
2022/04/17 04:22:25;;;;;;;19.77;14.13;;;;;;;3.10;70.20;102858.25;5039954;28;20036;-65
2022/04/17 04:24:51;;;;;;;21.88;14.57;;;;;;;3.08;69.34;102853.94;5040681;28;20028;-65
2022/04/17 04:30:01;;;;;;;19.15;14.68;;;;;;;2.95;70.65;102845.16;5040810;28;20052;-65
2022/04/17 04:32:27;;;;;;;20.73;14.88;;;;;;;2.94;71.50;102852.44;5039587;28;20029;-65
2022/04/17 04:34:57;;;;;;;20.40;14.70;;;;;;;2.95;71.03;102851.44;5040576;28;20029;-65
2022/04/17 04:37:22;;;;;;;24.10;14.35;;;;;;;2.97;71.65;102851.28;5040492;28;20060;-65
2022/04/17 04:39:47;;;;;;;21.60;14.70;;;;;;;2.98;71.35;102853.00;5040513;28;20068;-65
2022/04/17 04:42:13;;;;;;;21.98;15.07;;;;;;;2.93;72.03;102850.69;5040245;28;20033;-65
2022/04/17 04:44:38;;;;;;;20.73;15.23;;;;;;;2.93;71.74;102855.25;5040993;28;20686;-64
2022/04/17 04:47:03;;;;;;;20.33;14.50;;;;;;;2.92;72.01;102854.41;5039900;28;20017;-65
2022/04/17 04:49:32;;;;;;;22.60;14.55;;;;;;;2.97;72.52;102854.88;5040189;28;20033;-65
2022/04/17 04:51:57;;;;;;;21.95;14.57;;;;;;;3.00;72.56;102851.91;5040082;28;20411;-65
2022/04/17 04:54:22;;;;;;;22.15;14.80;;;;;;;3.02;73.53;102836.34;5040746;28;20025;-65
2022/04/17 04:56:48;;;;;;;21.90;14.07;;;;;;;3.02;73.75;102832.75;5040182;28;20379;-64
2022/04/17 04:59:13;;;;;;;22.17;14.77;;;;;;;3.00;71.91;102832.03;5040164;28;20025;-64
2022/04/17 05:01:38;;;;;;;21.23;14.75;;;;;;;2.98;71.75;102825.88;5040078;28;20017;-65
2022/04/17 05:04:03;;;;;;;23.77;15.60;;;;;;;3.01;71.53;102834.63;5040408;28;20032;-64
2022/04/17 05:06:29;;;;;;;24.75;15.30;;;;;;;3.04;72.12;102845.22;5039814;28;20029;-64
2022/04/17 05:08:54;;;;;;;21.42;15.20;;;;;;;3.12;72.11;102849.97;5040494;28;20029;-64
2022/04/17 05:11:20;;;;;;;22.75;14.82;;;;;;;3.13;72.11;102847.13;5039975;28;20040;-64
2022/04/17 05:13:46;;;;;;;22.80;15.15;;;;;;;3.19;72.06;102840.28;5040485;28;20036;-64
2022/04/17 05:16:13;;;;;;;23.25;15.93;;;;;;;3.24;72.14;102848.03;5039418;28;20017;-65
2022/04/17 05:18:38;;;;;;;19.08;14.70;;;;;;;3.26;72.66;102852.34;5044503;28;20041;-65
2022/04/17 05:21:05;;;;;;;26.05;15.73;;;;;;;3.32;72.72;102857.25;5042940;28;20475;-64
2022/04/17 05:23:31;;;;;;;24.25;15.40;;;;;;;3.39;71.51;102852.13;5043563;28;20075;-64
2022/04/17 05:26:01;;;;;;;20.35;15.02;;;;;;;3.48;71.33;102854.03;5043783;28;20025;-64
2022/04/17 05:28:28;;;;;;;21.42;14.52;;;;;;;3.50;71.41;102853.94;5043307;28;20040;-64
2022/04/17 05:30:53;;;;;;;20.98;14.65;;;;;;;3.66;70.91;102854.28;5042881;28;20024;-64
2022/04/17 05:33:20;;;;;;;21.20;15.15;;;;;;;3.87;66.81;102851.50;5043648;28;20494;-65
2022/04/17 05:35:46;;;;;;;22.08;13.77;;;;;;;4.14;66.27;102842.72;5042852;28;20024;-64
2022/04/17 05:38:12;;;;;;;27.48;15.85;;;;;;;4.09;70.04;102845.84;5043103;28;20108;-65
2022/04/17 05:40:41;;;;;;;26.10;15.15;;;;;;;4.09;69.74;102844.97;5044140;28;20112;-65
2022/04/17 05:43:06;;;;;;;21.67;15.02;;;;;;;4.07;68.00;102842.41;5044019;28;20033;-65
2022/04/17 05:45:32;;;;;;;25.20;15.98;;;;;;;4.11;69.50;102838.44;5040661;28;20070;-65
2022/04/17 05:47:58;;;;;;;26.23;15.73;;;;;;;4.15;69.28;102839.84;5043228;28;20025;-65
2022/04/17 05:50:24;;;;;;;25.77;15.52;;;;;;;4.25;67.55;102841.72;5042120;28;20074;-65
2022/04/17 05:52:51;;;;;;;25.58;15.70;;;;;;;4.35;66.95;102838.03;5043400;28;20032;-65
2022/04/17 05:55:16;;;;;;;26.70;15.95;;;;;;;4.50;64.94;102840.34;5042636;28;20086;-65
2022/04/17 05:57:41;;;;;;;26.90;17.17;;;;;;;4.59;65.47;102836.75;5043233;28;20370;-64
2022/04/17 06:00:08;;;;;;;24.38;16.02;;;;;;;4.68;65.62;102846.81;5043427;28;20021;-65
2022/04/17 06:02:35;;;;;;;27.40;15.93;;;;;;;4.82;65.13;102837.34;5041583;28;20044;-64
2022/04/17 06:05:01;;;;;;;21.05;14.88;;;;;;;4.94;63.51;102838.91;5042970;28;20491;-65
2022/04/17 06:07:27;;;;;;;22.80;15.00;;;;;;;5.07;62.71;102842.19;5042426;28;20070;-64
2022/04/17 06:09:52;;;;;;;23.67;15.00;;;;;;;5.16;63.42;102846.75;5042570;28;20076;-64
2022/04/17 06:12:18;;;;;;;19.80;14.68;;;;;;;5.23;63.01;102838.88;5042558;28;20124;-64
2022/04/17 06:14:43;;;;;;;22.23;13.98;;;;;;;5.29;63.11;102841.00;5042906;28;20284;-65
2022/04/17 06:17:10;;;;;;;21.98;15.32;;;;;;;5.34;63.52;102843.28;5042541;28;20324;-65
2022/04/17 06:19:35;;;;;;;19.45;14.00;;;;;;;5.39;61.68;102841.84;5042965;28;20351;-65
2022/04/17 06:22:01;;;;;;;20.90;14.57;;;;;;;5.49;61.73;102839.06;5042468;28;20029;-65
2022/04/17 06:24:26;;;;;;;20.77;14.65;;;;;;;5.59;62.56;102841.78;5042421;28;20087;-64
2022/04/17 06:26:51;;;;;;;20.30;13.88;;;;;;;5.68;61.73;102830.84;5040421;28;20033;-64
2022/04/17 06:29:16;;;;;;;20.33;13.70;;;;;;;5.81;61.33;102827.75;5040563;28;20459;-65
2022/04/17 06:31:45;;;;;;;19.15;13.10;;;;;;;6.07;60.56;102825.19;5041764;28;20090;-64
2022/04/17 06:34:11;;;;;;;19.52;13.55;;;;;;;6.35;60.93;102833.38;5042044;28;20035;-64
2022/04/17 06:36:37;;;;;;;18.98;13.45;;;;;;;6.47;58.96;102826.66;5042301;28;20028;-65
2022/04/17 06:39:02;;;;;;;18.02;13.00;;;;;;;6.55;58.89;102826.75;5042533;28;20029;-65
2022/04/17 06:41:27;;;;;;;18.60;12.95;;;;;;;6.74;58.11;102822.97;5042100;28;20031;-65
2022/04/17 06:43:53;;;;;;;19.20;12.57;;;;;;;6.93;57.26;102824.69;5041725;28;20029;-65
2022/04/17 06:46:18;;;;;;;21.48;12.80;;;;;;;7.28;55.65;102829.22;5041321;28;20525;-64
2022/04/17 06:48:43;;;;;;;19.48;13.45;;;;;;;8.07;55.44;102819.91;5041942;28;20063;-64
2022/04/17 06:51:08;;;;;;;18.58;12.10;;;;;;;8.88;52.21;102821.94;5041628;28;20036;-65
2022/04/17 06:53:34;;;;;;;17.40;12.30;;;;;;;9.04;51.74;102826.56;5040009;28;20246;-64
2022/04/17 06:55:59;;;;;;;17.23;11.77;;;;;;;8.98;52.42;102824.53;5041723;28;20419;-64
2022/04/17 06:58:24;;;;;;;16.23;12.02;;;;;;;9.06;51.07;102819.88;5041908;28;20035;-65
2022/04/17 07:00:49;;;;;;;17.27;11.48;;;;;;;9.56;50.29;102823.41;5040187;28;20025;-65
2022/04/17 07:03:15;;;;;;;15.95;11.30;;;;;;;9.62;48.85;102817.19;5041419;28;20029;-64
2022/04/17 07:05:42;;;;;;;16.42;12.02;;;;;;;10.12;46.99;102822.31;5040385;28;20124;-64
2022/04/17 07:08:07;;;;;;;17.10;11.48;;;;;;;11.15;47.05;102818.31;5041880;28;20035;-64
2022/04/17 07:10:37;;;;;;;16.85;11.75;;;;;;;11.51;44.25;102818.50;5041253;28;20124;-65
2022/04/17 07:13:11;;;;;;;14.68;10.82;;;;;;;11.61;45.83;102823.72;5041624;28;20387;-65
2022/04/17 07:15:36;;;;;;;16.88;11.02;;;;;;;12.13;43.16;102812.59;5040940;28;20386;-65
2022/04/17 07:18:01;;;;;;;14.32;10.80;;;;;;;12.00;44.09;102806.91;5040987;28;20020;-65
2022/04/17 07:20:27;;;;;;;15.88;10.68;;;;;;;12.06;42.58;102797.03;5040883;28;20036;-64
2022/04/17 07:22:52;;;;;;;13.88;9.88;;;;;;;13.04;41.12;102812.06;5041294;28;20025;-62
2022/04/17 07:25:18;;;;;;;15.68;9.85;;;;;;;13.58;39.27;102792.09;5040260;28;20340;-61
2022/04/17 07:27:45;;;;;;;15.95;8.85;;;;;;;13.34;39.23;102798.97;5041688;28;20024;-62
2022/04/17 07:30:12;;;;;;;12.02;9.10;;;;;;;13.41;40.58;102797.09;5039934;28;20024;-62
2022/04/17 07:32:39;;;;;;;12.98;9.57;;;;;;;13.74;39.47;102797.31;5040842;28;20025;-64
2022/04/17 07:35:06;;;;;;;11.13;8.23;;;;;;;13.59;38.81;102802.09;5040283;28;20029;-65
2022/04/17 07:37:34;;;;;;;12.80;9.00;;;;;;;13.22;39.38;102788.47;5039066;28;20025;-65
2022/04/17 07:39:59;;;;;;;14.73;9.27;;;;;;;13.81;38.74;102797.34;5039593;28;20244;-65
2022/04/17 07:42:25;;;;;;;14.02;8.82;;;;;;;14.00;38.16;102782.75;5040772;28;20017;-65
2022/04/17 07:44:50;;;;;;;12.07;9.00;;;;;;;13.65;38.46;102784.72;5040901;28;20312;-65
2022/04/17 07:47:16;;;;;;;13.18;9.20;;;;;;;13.04;38.89;102798.28;5039552;28;20028;-65
2022/04/17 07:49:42;;;;;;;17.23;8.48;;;;;;;12.80;40.22;102792.13;5040617;28;20025;-65
2022/04/17 07:52:08;;;;;;;12.98;8.85;;;;;;;12.91;40.78;102788.81;5040225;28;20090;-65
2022/04/17 07:54:33;;;;;;;13.88;9.30;;;;;;;12.94;41.76;102788.44;5040114;28;20496;-65
2022/04/17 07:56:58;;;;;;;12.55;8.40;;;;;;;13.07;42.80;102778.53;5040344;28;20037;-65
2022/04/17 07:59:25;;;;;;;12.85;8.80;;;;;;;12.91;40.46;102783.28;5040220;28;20080;-65
2022/04/17 08:01:50;;;;;;;14.32;8.52;;;;;;;12.60;40.71;102785.56;5038595;28;20033;-65
2022/04/17 08:04:16;;;;;;;12.20;8.93;;;;;;;12.39;41.69;102779.00;5040158;28;20242;-65
2022/04/17 08:06:41;;;;;;;12.63;8.13;;;;;;;12.27;42.06;102791.59;5039803;28;20186;-65
2022/04/17 08:09:06;;;;;;;12.00;8.30;;;;;;;12.22;41.05;102774.78;5040822;28;20044;-65
2022/04/17 08:11:31;;;;;;;12.80;8.38;;;;;;;12.36;42.23;102771.09;5039992;28;20040;-65
2022/04/17 08:13:57;;;;;;;10.98;8.18;;;;;;;12.38;42.36;102776.44;5040404;28;20028;-65
2022/04/17 08:16:23;;;;;;;10.52;7.70;;;;;;;12.43;40.73;102773.94;5039139;28;20078;-65
2022/04/17 08:18:49;;;;;;;11.52;8.18;;;;;;;12.38;41.47;102774.53;5040564;28;20068;-65
2022/04/17 08:21:14;;;;;;;12.82;7.22;;;;;;;12.30;39.26;102773.78;5039761;28;20067;-65
2022/04/17 08:23:39;;;;;;;11.02;7.38;;;;;;;12.38;40.14;102762.66;5040046;28;20258;-65
2022/04/17 08:26:05;;;;;;;11.85;7.18;;;;;;;12.53;42.73;102774.47;5041025;28;20029;-65
2022/04/17 08:28:30;;;;;;;9.70;7.57;;;;;;;12.64;42.15;102776.69;5039958;28;20025;-65
2022/04/17 08:30:56;;;;;;;12.68;8.07;;;;;;;12.81;41.43;102771.75;5038968;28;20453;-65
2022/04/17 08:33:23;;;;;;;12.73;7.35;;;;;;;13.03;38.75;102768.97;5039856;28;20036;-65
2022/04/17 08:35:48;;;;;;;11.27;6.75;;;;;;;13.35;40.81;102773.91;5038269;28;20021;-65
2022/04/17 08:38:14;;;;;;;13.07;7.40;;;;;;;14.18;38.84;102762.84;5040323;28;20426;-65
2022/04/17 08:40:40;;;;;;;11.20;7.50;;;;;;;14.39;40.37;102765.44;5039978;28;20021;-65
2022/04/17 08:43:07;;;;;;;11.90;7.47;;;;;;;14.42;36.51;102765.03;5040632;28;20028;-65
2022/04/17 08:45:32;;;;;;;12.00;6.70;;;;;;;14.18;35.84;102768.34;5039499;28;20383;-65
2022/04/17 08:47:58;;;;;;;8.90;6.93;;;;;;;14.23;37.25;102758.38;5026236;28;20104;-65
2022/04/17 08:50:23;;;;;;;10.68;7.10;;;;;;;14.51;37.96;102758.28;5039080;28;20033;-66
2022/04/17 08:52:50;;;;;;;10.10;6.57;;;;;;;16.15;34.63;102748.19;5042460;28;20402;-66
2022/04/17 08:55:16;;;;;;;10.27;6.40;;;;;;;17.51;31.65;102748.38;5043010;28;20174;-65
2022/04/17 08:57:42;;;;;;;8.88;5.72;;;;;;;18.18;31.20;102753.13;5043965;28;20448;-65
2022/04/17 09:00:11;;;;;;;8.45;5.78;;;;;;;18.99;29.07;102752.53;5042763;28;20036;-65
2022/04/17 09:02:37;;;;;;;8.60;5.80;;;;;;;20.65;28.68;102744.38;5044417;28;20301;-66
2022/04/17 09:05:05;;;;;;;9.23;6.07;;;;;;;21.67;25.09;102753.53;5043646;28;20112;-66
2022/04/17 09:07:50;;;;;;;10.27;5.63;;;;;;;21.17;26.88;102746.91;5042653;28;20017;-65
2022/04/17 09:10:24;;;;;;;8.80;5.57;;;;;;;21.68;26.31;102744.88;5042120;28;20329;-64
2022/04/17 09:12:52;;;;;;;9.82;5.20;;;;;;;21.62;24.79;102734.72;5043335;28;20017;-64
2022/04/17 09:15:17;;;;;;;9.32;5.53;;;;;;;22.31;24.50;102731.41;5042343;28;20238;-62
2022/04/17 09:17:43;;;;;;;10.43;5.40;;;;;;;22.97;24.88;102739.59;5043634;28;20112;-63
2022/04/17 09:20:19;;;;;;;9.05;5.20;;;;;;;23.29;22.63;102736.72;5043980;28;20491;-63
2022/04/17 09:22:49;;;;;;;9.68;5.72;;;;;;;22.62;23.30;102740.94;5043780;28;20243;-62
2022/04/17 09:25:15;;;;;;;9.15;5.97;;;;;;;23.48;24.09;102729.56;5043114;28;20340;-63
2022/04/17 09:27:54;;;;;;;10.25;6.07;;;;;;;23.81;23.50;102731.13;5043819;28;20013;-63
2022/04/17 09:30:27;;;;;;;8.07;5.72;;;;;;;24.55;22.25;102717.88;5042123;28;20028;-63
2022/04/17 09:32:53;;;;;;;9.20;6.13;;;;;;;25.91;22.10;102720.72;5043516;28;20051;-63
2022/04/17 09:35:22;;;;;;;10.90;5.80;;;;;;;26.44;20.58;102717.31;5043082;28;20412;-63
2022/04/17 09:37:48;;;;;;;8.45;5.72;;;;;;;26.42;20.15;102708.31;5041704;28;20344;-63
2022/04/17 09:40:18;;;;;;;11.82;6.70;;;;;;;26.43;20.28;102715.66;5043206;28;20477;-63
2022/04/17 09:42:47;;;;;;;9.73;5.50;;;;;;;26.55;19.91;102714.13;5041907;28;20029;-63
2022/04/17 09:45:12;;;;;;;8.32;5.38;;;;;;;26.22;18.92;102715.75;5041835;28;20061;-63
2022/04/17 09:47:37;;;;;;;8.57;4.88;;;;;;;25.90;19.92;102709.75;5043483;28;20071;-63
2022/04/17 09:50:06;;;;;;;8.93;5.38;;;;;;;25.68;19.72;102708.13;5043094;28;20621;-63
2022/04/17 09:52:44;;;;;;;7.72;5.50;;;;;;;25.68;20.10;102699.69;5042168;28;20098;-63
2022/04/17 09:55:10;;;;;;;;;;;;;;;26.39;21.40;102690.84;5041713;28;20440;-64
2022/04/17 09:57:40;;;;;;;10.75;6.47;;;;;;;26.40;19.28;102678.44;5043586;28;20043;-63
2022/04/17 10:00:09;;;;;;;10.02;6.38;;;;;;;27.19;19.10;102678.31;5041645;28;20032;-63
2022/04/17 10:02:36;;;;;;;9.90;6.78;;;;;;;27.66;20.04;102680.28;5042406;28;20372;-63
2022/04/17 10:05:03;;;;;;;10.20;6.85;;;;;;;28.35;19.08;102669.44;5042562;28;20263;-63
2022/04/17 10:07:28;;;;;;;9.57;6.45;;;;;;;28.22;18.41;102661.69;5041622;28;20021;-63
2022/04/17 10:09:54;;;;;;;9.02;6.50;;;;;;;27.51;18.17;102662.69;5042524;28;20055;-64
2022/04/17 10:12:20;;;;;;;10.32;6.65;;;;;;;27.27;19.10;102660.75;5042341;28;20024;-64
2022/04/17 10:14:49;;;;;;;10.15;6.35;;;;;;;27.37;18.65;102660.63;5040366;28;20099;-65
2022/04/17 10:17:19;;;;;;;9.73;6.45;;;;;;;27.49;19.71;102648.91;5042132;28;20347;-65
2022/04/17 10:19:46;;;;;;;10.05;6.40;;;;;;;27.13;19.03;102649.34;5042465;28;20471;-65
2022/04/17 10:22:12;;;;;;;12.38;6.43;;;;;;;26.98;18.59;102646.66;5041604;28;20075;-65
2022/04/17 10:24:38;;;;;;;13.90;6.85;;;;;;;27.02;18.32;102647.75;5042481;28;20021;-64
2022/04/17 10:27:06;;;;;;;10.57;6.72;;;;;;;27.82;17.62;102635.75;5042098;28;20017;-65
2022/04/17 10:29:45;;;;;;;11.65;7.07;;;;;;;28.91;18.36;102628.88;5041357;28;20041;-65
2022/04/17 10:32:32;;;;;;;11.07;6.70;;;;;;;29.24;17.91;102630.78;5041634;28;20423;-64
2022/04/17 10:35:09;;;;;;;9.27;6.13;;;;;;;28.81;16.75;102623.41;5042045;28;20428;-64
2022/04/17 10:38:11;;;;;;;8.98;6.07;;;;;;;28.82;18.92;102615.75;5042271;28;20364;-64
2022/04/17 10:40:37;;;;;;;9.65;5.97;;;;;;;29.21;18.62;102618.13;5042456;28;20028;-64
2022/04/17 10:43:04;;;;;;;13.45;7.13;;;;;;;29.27;16.74;102607.53;5042034;28;20320;-65
2022/04/17 10:45:32;;;;;;;10.75;6.63;;;;;;;29.98;17.46;102600.25;5040730;28;20036;-65
2022/04/17 10:48:00;;;;;;;;;;;;;;;30.82;18.00;102604.34;5042125;28;20099;-65
2022/04/17 10:50:25;;;;;;;11.52;7.30;;;;;;;29.26;15.94;102595.38;5040826;28;19912;-65
2022/04/17 10:52:54;;;;;;;11.40;7.15;;;;;;;29.12;15.84;102603.03;5041940;28;20021;-65
2022/04/17 10:55:20;;;;;;;10.35;6.22;;;;;;;29.26;15.79;102600.19;5040958;28;20045;-65
2022/04/17 10:57:48;;;;;;;12.65;7.03;;;;;;;29.28;16.55;102587.38;5042057;28;20123;-65
2022/04/17 11:00:27;;;;;;;10.75;6.57;;;;;;;28.26;16.13;102588.47;5040497;28;20017;-65
2022/04/17 11:02:53;;;;;;;11.15;6.93;;;;;;;27.01;16.26;102580.34;5041699;28;20040;-65
2022/04/17 11:08:22;;;;;;;10.27;7.00;;;;;;;27.22;16.25;102570.53;5041748;28;20102;-66
2022/04/17 11:11:00;;;;;;;11.85;7.32;;;;;;;28.12;17.70;102571.47;5041092;28;20029;-66
2022/04/17 11:13:26;;;;;;;10.95;7.25;;;;;;;27.76;17.29;102563.56;5023751;28;20017;-66
2022/04/17 11:15:54;;;;;;;10.48;6.28;;;;;;;27.59;16.77;102564.09;5040602;28;20671;-65
2022/04/17 11:18:24;;;;;;;12.48;7.03;;;;;;;26.93;16.81;102558.44;5041345;28;20044;-65
2022/04/17 11:20:53;;;;;;;9.60;6.50;;;;;;;25.16;19.98;102565.19;5040675;28;20044;-65
2022/04/17 11:23:53;;;;;;;10.45;7.22;;;;;;;23.65;21.70;102558.25;5040997;28;20498;-65
2022/04/17 11:26:18;;;;;;;10.25;7.20;;;;;;;22.29;21.96;102554.44;5040663;28;20025;-66
2022/04/17 11:28:57;;;;;;;9.05;6.50;;;;;;;21.62;23.52;102544.59;5041810;28;20022;-65
2022/04/17 11:31:32;;;;;;;12.25;6.90;;;;;;;21.30;25.49;102536.13;5039533;28;20020;-66
2022/04/17 11:34:00;;;;;;;10.23;6.60;;;;;;;21.20;25.68;102534.03;5041618;28;20412;-66
2022/04/17 11:36:25;;;;;;;10.55;7.40;;;;;;;21.10;24.02;102545.09;5040519;28;20391;-65